AirNav   ProFlight Series 2 Aviation Headset
 
 640 users online  

2IL8 Illinois Department of Transportation Heliport
Elgin, Illinois, USA

GOING TO ELGIN?


FAA INFORMATION EFFECTIVE 18 JUNE 2020

Location

FAA Identifier: 2IL8
Lat/Long: 42-01-14.0960N 088-16-58.2800W
42-01.234933N 088-16.971333W
42.0205822,-88.2828556
(estimated)
Elevation: 730 ft. / 223 m (estimated)
Variation: 01W (1985)
Time zone: UTC -5 (UTC -6 during Standard Time)
Zip code: 60123

Heliport Operations

Heliport use: Private use. Permission required prior to landing
Activation date: 10/1972
Control tower: no
ARTCC: CHICAGO CENTER
FSS: KANKAKEE FLIGHT SERVICE STATION
Attendance: UNATNDD
Wind indicator: yes
Segmented circle: no

Heliport Communications

WX ASOS at DPA (7 nm S): PHONE 630-587-3668
WX AWOS-3 at 06C (8 nm E): 128.275 ((847) 895-2887)
WX ASOS at ORD (17 nm E): PHONE 773-462-0118
WX ASOS at ARR (17 nm SW): PHONE 630-466-5622
WX ASOS at PWK (18 nm E): PHONE 847-465-0291
WX AWOS-3 at DKB (20 nm W): 119.075 (815-748-2350)

Nearby radio navigation aids

VOR radial/distance  VOR name  Freq  Var
DPAr019/8.4DUPAGE VOR/DME108.4002E
OBKr233/19.0NORTHBROOK VOR/DME113.0002W
JOTr001/28.5JOLIET VOR/DME112.3002E

Heliport Services

Airframe service: NONE
Powerplant service: NONE

Runway Information

Helipad H1

Dimensions: 25 x 25 ft. / 8 x 8 m
25X25' HARD SFC PAD SUPERIMPOSED ON 60' CIRCULAR TURF PAD.
Surface: concrete
Latitude: 42-01.234933N
Longitude: 088-16.971333W
Elevation: 730.0 ft.
Traffic pattern: leftleft

Heliport Ownership and Management from official FAA records

Ownership: Publicly-owned
Owner: ILLINOIS DOT
1 LANGHORNE BOND DROVE
SPRINGFIELD, IL 62707
Phone (217) 785-8515
Manager: LINDA SCHUMM
1 LANGHORNE BOND DROVE
SPRINGFIELD, IL 62707
Phone (217) 785-8515

Instrument Procedures

There are no published instrument procedures at 2IL8.

Some nearby airports with instrument procedures:

KDPA - DuPage Airport (7 nm S)
3CK - Lake in the Hills Airport (11 nm N)
KORD - Chicago O'Hare International Airport (17 nm E)
KARR - Aurora Municipal Airport (17 nm SW)
KPWK - Chicago Executive Airport (18 nm E)
KDKB - De Kalb Taylor Municipal Airport (20 nm W)
 
Loc | Ops | Rwys | IFR | FBO | Links
Com | Nav | Svcs | Stats | Notes
Area around 2IL8 (Illinois Department of Transportation Heliport)
 
Road maps at: MapQuest Bing Google
 
Aerial photo
No photo
 
Sectional chart

 
Airport distance calculator
Flying to Illinois Department of Transportation Heliport? Find the distance to fly.

From to 2IL8

Sunrise and sunset
Times for 05-Jul-2020
 Local
(UTC-5)
 Zulu
(UTC)
Morning civil twilight04:5109:51
Sunrise05:2510:25
Sunset20:3101:31
Evening civil twilight21:0502:05

Current date and time
Zulu (UTC)  05-Jul-2020 12:46:29
Local (UTC-5)  05-Jul-2020 07:46:29
 
METAR
KDPA 
6nm S 
051152Z 00000KT 6SM BR CLR 21/19 A3001 RMK AO2 SLP155 T02110189 10211 20172 53003
K06C 
8nm E 
051230Z AUTO 00000KT 10SM CLR 24/20 A3002 RMK AO2 T02420197
KORD 
16nm E 
051151Z 00000KT 10SM FEW250 24/21 A3000 RMK AO2 SLP153 T02390206 10239 20217 53002 $
KARR 
18nm SW 
051227Z 00000KT 3SM BR CLR 22/20 A3002 RMK AO2 T02220200
KPWK 
18nm E 
051152Z 00000KT 5SM HZ CLR 23/21 A3002 RMK AO2 SLP160 T02330206 10233 20200 53003
KDKB 
19nm W 
051235Z AUTO 00000KT 10SM SCT120 24/18 A3004 RMK AO2 T02430180
TAF
KDPA 
6nm S 
051126Z 0512/0612 04006KT P6SM SKC FM060300 00000KT P6SM FEW300
KORD 
16nm E 
051126Z 0512/0618 04007KT P6SM SKC FM060300 VRB03KT P6SM FEW300 FM061700 08009KT P6SM FEW050
NOTAMs
Click for the latest NOTAMs
NOTAMs are issued by the DoD/FAA and will open in a separate window not controlled by AirNav.

 

 
 

Would you like to see your business listed on this page?

 If your business provides an interesting product or service to pilots, flight crews, aircraft, or users of the Illinois Department of Transportation Heliport, you should consider listing it here.  To start the listing process, click on the button below
 
Add a business
 

Other Pages about Illinois Department of Transportation Heliport

Update a link
 
Copyright © AirNav, LLC. All rights reserved. Privacy Policy  Contact